createdAt,value
2018-02-04T00:00:32.563Z,97512.84
2018-02-04T00:03:00.237Z,97508.50
2018-02-04T00:05:27.972Z,97503.91
2018-02-04T00:07:56.029Z,97498.84
2018-02-04T00:10:23.926Z,97516.64
2018-02-04T00:12:52.040Z,97512.77
2018-02-04T00:15:20.100Z,97528.05
2018-02-04T00:17:48.988Z,97513.75
2018-02-04T00:20:16.677Z,97536.91
2018-02-04T00:22:44.331Z,97525.54
2018-02-04T00:25:11.983Z,97513.19
2018-02-04T00:27:39.591Z,97503.53
2018-02-04T00:30:07.262Z,97496.96
2018-02-04T00:32:34.874Z,97505.34
2018-02-04T00:35:02.467Z,97496.45
2018-02-04T00:37:30.171Z,97496.14
2018-02-04T00:39:57.889Z,97480.53
2018-02-04T00:42:25.947Z,97460.52
2018-02-04T00:44:54.445Z,97457.18
2018-02-04T00:47:22.024Z,97465.00
2018-02-04T00:49:49.605Z,97472.45
2018-02-04T00:52:17.452Z,97466.15
2018-02-04T00:54:45.057Z,97473.48
2018-02-04T00:57:12.650Z,97463.65
2018-02-04T00:59:40.313Z,97455.52
2018-02-04T01:02:07.898Z,97450.92
2018-02-04T01:04:35.499Z,97450.30
2018-02-04T01:07:03.265Z,97443.94
2018-02-04T01:09:30.858Z,97435.69
2018-02-04T01:11:58.697Z,97448.56
2018-02-04T01:14:26.353Z,97441.85
2018-02-04T01:16:53.951Z,97445.70
2018-02-04T01:19:21.542Z,97439.09
2018-02-04T01:21:49.179Z,97459.02
2018-02-04T01:24:16.783Z,97477.47
2018-02-04T01:26:44.386Z,97484.19
2018-02-04T01:29:12.945Z,97471.11
2018-02-04T01:31:41.030Z,97466.98
2018-02-04T01:34:08.596Z,97477.55
2018-02-04T01:36:36.240Z,97485.83
2018-02-04T01:39:06.000Z,97480.66
2018-02-04T01:41:33.597Z,97475.73
2018-02-04T01:44:01.409Z,97475.24
2018-02-04T01:46:29.031Z,97481.19
2018-02-04T01:48:56.636Z,97479.63
2018-02-04T01:51:24.293Z,97487.38
2018-02-04T01:53:51.901Z,97470.03
2018-02-04T01:56:19.486Z,97486.75
2018-02-04T01:58:47.136Z,97486.75
2018-02-04T02:01:14.734Z,97481.86
2018-02-04T02:03:42.513Z,97483.38
2018-02-04T02:06:10.195Z,97487.77
2018-02-04T02:08:37.802Z,97500.31
2018-02-04T02:11:05.469Z,97510.17
2018-02-04T02:13:33.168Z,97511.78
2018-02-04T02:16:01.740Z,97503.75
2018-02-04T02:18:29.371Z,97511.61
2018-02-04T02:20:57.275Z,97522.45
2018-02-04T02:23:24.891Z,97514.17
2018-02-04T02:25:52.475Z,97510.70
2018-02-04T02:28:20.209Z,97498.92
2018-02-04T02:30:48.359Z,97505.62
2018-02-04T02:33:16.788Z,97505.98
2018-02-04T02:35:44.521Z,97512.76
2018-02-04T02:38:12.159Z,97498.58
2018-02-04T02:40:39.806Z,97495.63
2018-02-04T02:43:07.533Z,97498.23
2018-02-04T02:45:35.256Z,97494.69
2018-02-04T02:48:02.868Z,97502.30
2018-02-04T02:50:30.538Z,97510.46
2018-02-04T02:52:58.176Z,97513.83
2018-02-04T02:55:25.751Z,97508.20
2018-02-04T02:57:53.399Z,97513.23
2018-02-04T03:00:20.976Z,97511.50
2018-02-04T03:02:48.618Z,97513.17
2018-02-04T03:05:16.255Z,97519.22
2018-02-04T03:07:43.897Z,97529.22
2018-02-04T03:10:11.539Z,97538.39
2018-02-04T03:12:39.340Z,97535.40
2018-02-04T03:15:06.958Z,97539.36
2018-02-04T03:17:34.626Z,97552.94
2018-02-04T03:20:02.512Z,97542.80
2018-02-04T03:22:30.096Z,97535.95
2018-02-04T03:24:58.638Z,97542.08
2018-02-04T03:27:26.369Z,97533.45
2018-02-04T03:29:53.998Z,97533.25
2018-02-04T03:32:21.572Z,97537.97
2018-02-04T03:34:49.222Z,97539.64
2018-02-04T03:37:16.820Z,97539.88
2018-02-04T03:39:44.423Z,97530.12
2018-02-04T03:42:12.117Z,97537.20
2018-02-04T03:44:39.705Z,97549.45
2018-02-04T03:47:07.682Z,97541.77
2018-02-04T03:49:35.312Z,97536.14
2018-02-04T03:52:02.880Z,97538.23
2018-02-04T03:54:30.477Z,97540.94
2018-02-04T03:56:58.224Z,97542.95
2018-02-04T03:59:25.821Z,97552.42
2018-02-04T04:01:54.468Z,97559.89
2018-02-04T04:04:22.112Z,97561.53
2018-02-04T04:06:49.689Z,97568.94
2018-02-04T04:09:17.712Z,97570.60
2018-02-04T04:11:45.348Z,97572.27
2018-02-04T04:14:12.954Z,97577.71
2018-02-04T04:16:40.558Z,97571.91
2018-02-04T04:19:08.424Z,97578.93
2018-02-04T04:21:36.044Z,97579.97
2018-02-04T04:24:03.654Z,97583.98
2018-02-04T04:26:31.429Z,97591.06
2018-02-04T04:28:59.019Z,97597.31
2018-02-04T04:31:27.562Z,97602.13
2018-02-04T04:33:55.956Z,97594.83
2018-02-04T04:36:23.703Z,97594.65
2018-02-04T04:38:51.395Z,97601.70
2018-02-04T04:41:19.053Z,97599.00
2018-02-04T04:43:46.635Z,97610.38
2018-02-04T04:46:14.232Z,97605.68
2018-02-04T04:48:41.981Z,97608.09
2018-02-04T04:51:09.586Z,97612.80
2018-02-04T04:53:37.159Z,97618.45
2018-02-04T04:56:05.090Z,97616.91
2018-02-04T04:58:32.664Z,97623.98
2018-02-04T05:01:00.230Z,97627.02
2018-02-04T05:03:28.008Z,97627.03
2018-02-04T05:05:55.585Z,97624.56
2018-02-04T05:08:23.767Z,97615.66
2018-02-04T05:10:51.415Z,97617.00
2018-02-04T05:13:18.990Z,97612.45
2018-02-04T05:15:46.593Z,97612.59
2018-02-04T05:18:14.239Z,97622.79
2018-02-04T05:20:41.812Z,97629.25
2018-02-04T05:23:10.185Z,97624.14
2018-02-04T05:25:37.808Z,97639.13
2018-02-04T05:28:05.449Z,97645.24
2018-02-04T05:30:33.032Z,97652.31
2018-02-04T05:33:00.673Z,97642.92
2018-02-04T05:35:28.239Z,97648.75
2018-02-04T05:37:55.804Z,97647.74
2018-02-04T05:40:23.453Z,97652.36
2018-02-04T05:42:51.045Z,97646.85
2018-02-04T05:45:18.609Z,97653.03
2018-02-04T05:47:46.259Z,97653.66
2018-02-04T05:50:13.971Z,97653.91
2018-02-04T05:52:41.546Z,97658.69
2018-02-04T05:55:09.281Z,97660.69
2018-02-04T05:57:36.900Z,97654.53
2018-02-04T06:00:04.538Z,97658.53
2018-02-04T06:02:32.155Z,97657.84
2018-02-04T06:04:59.735Z,97674.45
2018-02-04T06:07:27.365Z,97663.99
2018-02-04T06:09:54.986Z,97676.84
2018-02-04T06:12:22.546Z,97671.98
2018-02-04T06:14:50.111Z,97679.64
2018-02-04T06:17:17.909Z,97688.89
2018-02-04T06:19:45.513Z,97691.94
2018-02-04T06:22:13.126Z,97689.41
2018-02-04T06:24:41.046Z,97689.31
2018-02-04T06:27:08.631Z,97698.91
2018-02-04T06:29:36.219Z,97714.19
2018-02-04T06:32:03.835Z,97714.41
2018-02-04T06:34:31.494Z,97723.55
2018-02-04T06:36:59.084Z,97711.67
2018-02-04T06:39:26.708Z,97714.45
2018-02-04T06:41:54.348Z,97711.81
2018-02-04T06:44:22.856Z,97702.40
2018-02-04T06:46:50.499Z,97707.98
2018-02-04T06:49:18.087Z,97712.73
2018-02-04T06:51:45.732Z,97715.32
2018-02-04T06:54:13.435Z,97708.77
2018-02-04T06:56:41.004Z,97725.13
2018-02-04T06:59:08.588Z,97718.45
2018-02-04T07:01:36.224Z,97724.91
2018-02-04T07:04:03.818Z,97729.69
2018-02-04T07:06:31.377Z,97729.18
2018-02-04T07:08:59.032Z,97718.55
2018-02-04T07:11:26.597Z,97727.66
2018-02-04T07:13:54.149Z,97746.61
2018-02-04T07:16:22.085Z,97749.34
2018-02-04T07:18:49.646Z,97749.22
2018-02-04T07:21:17.197Z,97756.38
2018-02-04T07:23:44.936Z,97753.94
2018-02-04T07:26:12.524Z,97751.42
2018-02-04T07:28:40.127Z,97758.61
2018-02-04T07:31:07.728Z,97756.42
2018-02-04T07:33:35.284Z,97754.32
2018-02-04T07:36:02.911Z,97751.25
2018-02-04T07:38:30.535Z,97752.86
2018-02-04T07:40:58.097Z,97756.03
2018-02-04T07:43:25.686Z,97752.18
2018-02-04T07:45:53.343Z,97756.76
2018-02-04T07:48:20.905Z,97767.89
2018-02-04T07:50:48.514Z,97752.42
2018-02-04T07:53:16.525Z,97764.47
2018-02-04T07:55:47.746Z,97774.02
2018-02-04T07:58:15.370Z,97770.44
2018-02-04T08:00:43.133Z,97773.45
2018-02-04T08:03:10.716Z,97776.28
2018-02-04T08:05:38.284Z,97786.22
2018-02-04T08:08:06.123Z,97780.12
2018-02-04T08:10:33.769Z,97791.73
2018-02-04T08:13:01.414Z,97802.66
2018-02-04T08:15:29.029Z,97798.31
2018-02-04T08:17:56.651Z,97818.36
2018-02-04T08:20:24.219Z,97816.84
2018-02-04T08:22:51.843Z,97824.23
2018-02-04T08:25:19.409Z,97842.48
2018-02-04T08:27:46.970Z,97849.76
2018-02-04T08:30:14.604Z,97850.38
2018-02-04T08:32:42.189Z,97865.77
2018-02-04T08:35:09.888Z,97872.09
2018-02-04T08:37:37.670Z,97898.76
2018-02-04T08:40:05.246Z,97902.47
2018-02-04T08:42:33.507Z,97909.33
2018-02-04T08:45:01.137Z,97912.02
2018-02-04T08:47:28.724Z,97910.32
2018-02-04T08:49:56.303Z,97915.95
2018-02-04T08:52:24.043Z,97920.11
2018-02-04T08:54:51.751Z,97922.28
2018-02-04T08:57:19.313Z,97909.52
2018-02-04T08:59:47.176Z,97908.17
2018-02-04T09:02:14.769Z,97901.28
2018-02-04T09:04:42.338Z,97901.86
2018-02-04T09:07:09.984Z,97912.44
2018-02-04T09:09:37.637Z,97918.99
2018-02-04T09:12:05.226Z,97925.80
2018-02-04T09:14:32.949Z,97933.98
2018-02-04T09:17:00.540Z,97920.37
2018-02-04T09:19:28.160Z,97929.30
2018-02-04T09:21:55.786Z,97921.52
2018-02-04T09:24:23.346Z,97936.16
2018-02-04T09:26:50.979Z,97947.98
2018-02-04T09:29:18.821Z,97943.57
2018-02-04T09:31:46.426Z,97938.06
2018-02-04T09:34:14.027Z,97933.52
2018-02-04T09:36:41.668Z,97922.27
2018-02-04T09:39:09.250Z,97913.20
2018-02-04T09:41:36.841Z,97926.03
2018-02-04T09:44:04.477Z,97923.97
2018-02-04T09:46:32.036Z,97918.92
2018-02-04T09:48:59.605Z,97930.49
2018-02-04T09:51:27.325Z,97926.63
2018-02-04T09:53:54.900Z,97947.53
2018-02-04T09:56:22.553Z,97956.91
2018-02-04T09:58:50.542Z,97973.73
2018-02-04T10:01:18.125Z,97973.49
2018-02-04T10:03:45.693Z,97985.46
2018-02-04T10:06:13.334Z,97988.91
2018-02-04T10:08:40.902Z,97994.38
2018-02-04T10:11:09.389Z,98004.63
2018-02-04T10:13:37.016Z,98001.25
2018-02-04T10:16:04.650Z,97982.28
2018-02-04T10:18:32.237Z,97991.59
2018-02-04T10:20:59.864Z,97988.50
2018-02-04T10:23:27.423Z,97985.94
2018-02-04T10:25:55.052Z,97985.19
2018-02-04T10:28:22.794Z,97968.23
2018-02-04T10:30:50.457Z,97979.67
2018-02-04T10:35:44.953Z,97985.99
2018-02-04T10:38:12.538Z,97990.73
2018-02-04T10:40:40.096Z,97985.69
2018-02-04T10:43:08.005Z,97995.27
2018-02-04T10:45:35.568Z,97984.40
2018-02-04T10:48:03.162Z,97980.70
2018-02-04T10:50:30.849Z,97995.44
2018-02-04T10:52:58.465Z,98012.60
2018-02-04T10:55:26.085Z,97997.31
2018-02-04T10:57:53.925Z,97998.25
2018-02-04T11:00:21.504Z,97996.87
2018-02-04T11:02:49.059Z,97994.06
2018-02-04T11:05:16.758Z,98002.05
2018-02-04T11:07:44.341Z,97993.36
2018-02-04T11:10:11.993Z,97996.56
2018-02-04T11:12:39.641Z,98001.94
2018-02-04T11:15:07.220Z,98006.87
2018-02-04T11:17:34.783Z,98011.44
2018-02-04T11:20:02.431Z,98000.78
2018-02-04T11:22:30.028Z,97994.22
2018-02-04T11:24:57.614Z,97974.27
2018-02-04T11:29:52.623Z,97994.86
2018-02-04T11:32:21.309Z,97990.49
2018-02-04T11:34:48.983Z,97982.77
2018-02-04T11:37:16.549Z,98001.72
2018-02-04T11:39:44.192Z,98002.14
2018-02-04T11:42:11.815Z,98013.64
2018-02-04T11:44:39.474Z,98015.08
2018-02-04T11:47:07.068Z,98034.78
2018-02-04T11:49:34.707Z,98043.00
2018-02-04T11:52:02.305Z,98052.69
2018-02-04T11:54:30.031Z,98058.84
2018-02-04T11:56:57.659Z,98061.17
2018-02-04T11:59:25.524Z,98077.12
2018-02-04T12:01:53.080Z,98075.86
2018-02-04T12:04:20.757Z,98071.22
2018-02-04T12:06:48.328Z,98061.48
2018-02-04T12:09:15.898Z,98068.91
2018-02-04T12:11:43.501Z,98078.00
2018-02-04T12:14:11.325Z,98081.77
2018-02-04T12:16:38.933Z,98079.78
2018-02-04T12:19:06.627Z,98098.33
2018-02-04T12:21:34.304Z,98102.36
2018-02-04T12:24:01.938Z,98098.99
2018-02-04T12:26:29.671Z,98102.95
2018-02-04T12:28:57.257Z,98098.77
2018-02-04T12:31:24.826Z,98098.78
2018-02-04T12:33:52.546Z,98093.09
2018-02-04T12:36:20.126Z,98089.08
2018-02-04T12:38:47.680Z,98072.54
2018-02-04T12:41:15.309Z,98085.81
2018-02-04T12:43:42.877Z,98087.13
2018-02-04T12:46:10.510Z,98094.05
2018-02-04T12:48:38.131Z,98103.98
2018-02-04T12:51:05.723Z,98111.89
2018-02-04T12:53:35.432Z,98131.88
2018-02-04T12:56:03.217Z,98134.97
2018-02-04T12:58:30.780Z,98135.53
2018-02-04T13:00:58.400Z,98130.92
2018-02-04T13:03:26.004Z,98124.98
2018-02-04T13:05:53.577Z,98112.88
2018-02-04T13:08:21.640Z,98115.63
2018-02-04T13:10:49.271Z,98129.48
2018-02-04T13:13:17.238Z,98138.23
2018-02-04T13:15:44.852Z,98130.97
2018-02-04T13:18:12.704Z,98141.91
2018-02-04T13:20:40.269Z,98133.98
2018-02-04T13:23:08.686Z,98132.59
2018-02-04T13:25:36.388Z,98138.77
2018-02-04T13:28:05.145Z,98135.97
2018-02-04T13:30:32.732Z,98149.20
2018-02-04T13:33:00.376Z,98161.39
2018-02-04T13:35:27.984Z,98161.57
2018-02-04T13:37:55.675Z,98171.16
2018-02-04T13:40:23.481Z,98172.61
2018-02-04T13:42:51.064Z,98176.19
2018-02-04T13:45:18.644Z,98187.63
2018-02-04T13:47:46.261Z,98186.84
2018-02-04T13:50:13.862Z,98187.01
2018-02-04T13:52:41.474Z,98178.45
2018-02-04T13:55:10.213Z,98174.64
2018-02-04T13:57:37.805Z,98175.53
2018-02-04T14:00:05.496Z,98163.47
2018-02-04T14:02:33.315Z,98161.42
2018-02-04T14:05:00.890Z,98171.25
2018-02-04T14:07:28.495Z,98164.14
2018-02-04T14:09:56.219Z,98171.07
2018-02-04T14:12:24.324Z,98167.86
2018-02-04T14:14:51.922Z,98170.30
2018-02-04T14:17:19.568Z,98179.77
2018-02-04T14:19:47.199Z,98180.11
2018-02-04T14:22:14.809Z,98176.53
2018-02-04T14:24:42.469Z,98192.55
2018-02-04T14:27:10.064Z,98178.17
2018-02-04T14:29:37.668Z,98188.73
2018-02-04T14:32:05.300Z,98193.16
2018-02-04T14:34:32.876Z,98200.80
2018-02-04T14:37:00.537Z,98208.69
2018-02-04T14:39:28.165Z,98225.72
2018-02-04T14:41:55.776Z,98225.27
2018-02-04T14:44:23.418Z,98228.14
2018-02-04T14:46:51.084Z,98226.84
2018-02-04T14:49:18.670Z,98238.93
2018-02-04T14:51:46.250Z,98238.91
2018-02-04T14:54:14.214Z,98245.53
2018-02-04T14:56:41.845Z,98250.17
2018-02-04T14:59:09.445Z,98256.30
2018-02-04T15:01:37.069Z,98269.41
2018-02-04T15:04:04.832Z,98261.80
2018-02-04T15:06:32.436Z,98267.34
2018-02-04T15:09:00.084Z,98272.11
2018-02-04T15:11:27.674Z,98262.20
2018-02-04T15:13:55.262Z,98260.72
2018-02-04T15:16:22.973Z,98269.45
2018-02-04T15:18:50.579Z,98275.61
2018-02-04T15:21:18.160Z,98279.08
2018-02-04T15:23:45.893Z,98282.86
2018-02-04T15:26:13.510Z,98296.73
2018-02-04T15:28:41.098Z,98296.23
2018-02-04T15:31:08.776Z,98293.89
2018-02-04T15:33:36.357Z,98293.30
2018-02-04T15:36:03.972Z,98297.53
2018-02-04T15:38:31.949Z,98297.36
2018-02-04T15:40:59.524Z,98292.84
2018-02-04T15:43:27.121Z,98304.64
2018-02-04T15:45:54.744Z,98307.65
2018-02-04T15:48:22.336Z,98316.41
2018-02-04T15:50:49.943Z,98327.50
2018-02-04T15:53:17.609Z,98328.07
2018-02-04T15:55:45.201Z,98338.03
2018-02-04T15:58:13.126Z,98358.38
2018-02-04T16:00:41.001Z,98361.86
2018-02-04T16:03:08.626Z,98362.78
2018-02-04T16:05:36.250Z,98369.02
2018-02-04T16:08:04.446Z,98381.28
2018-02-04T16:10:32.668Z,98383.16
2018-02-04T16:13:00.318Z,98395.64
2018-02-04T16:15:28.091Z,98393.98
2018-02-04T16:17:55.806Z,98394.84
2018-02-04T16:20:23.403Z,98397.55
2018-02-04T16:22:51.117Z,98394.11
2018-02-04T16:25:18.693Z,98404.19
2018-02-04T16:27:46.273Z,98405.42
2018-02-04T16:30:13.973Z,98415.62
2018-02-04T16:32:41.575Z,98420.27
2018-02-04T16:35:09.151Z,98428.56
2018-02-04T16:37:36.804Z,98431.59
2018-02-04T16:40:04.483Z,98434.38
2018-02-04T16:42:32.072Z,98445.66
2018-02-04T16:44:59.702Z,98451.67
2018-02-04T16:47:27.327Z,98449.49
2018-02-04T16:49:54.916Z,98448.46
2018-02-04T16:52:22.621Z,98461.21
2018-02-04T16:54:50.388Z,98460.32
2018-02-04T16:57:18.066Z,98461.06
2018-02-04T16:59:45.696Z,98460.81
2018-02-04T17:02:13.283Z,98459.99
2018-02-04T17:04:40.866Z,98470.23
2018-02-04T17:07:08.720Z,98474.14
2018-02-04T17:09:36.296Z,98470.36
2018-02-04T17:12:03.914Z,98482.45
2018-02-04T17:14:31.886Z,98485.56
2018-02-04T17:16:59.528Z,98489.47
2018-02-04T17:19:27.101Z,98488.28
2018-02-04T17:21:54.752Z,98489.14
2018-02-04T17:24:22.354Z,98492.22
2018-02-04T17:26:50.013Z,98495.39
2018-02-04T17:29:18.005Z,98494.71
2018-02-04T17:31:45.650Z,98491.97
2018-02-04T17:34:13.372Z,98493.38
2018-02-04T17:36:41.044Z,98491.39
2018-02-04T17:39:11.488Z,98490.78
2018-02-04T17:41:42.861Z,98485.44
2018-02-04T17:44:10.488Z,98495.30
2018-02-04T17:46:38.293Z,98484.16
2018-02-04T17:49:06.203Z,98481.34
2018-02-04T17:51:33.827Z,98490.16
2018-02-04T17:54:01.476Z,98489.73
2018-02-04T17:56:29.186Z,98491.00
2018-02-04T17:58:57.047Z,98495.02
2018-02-04T18:01:24.702Z,98496.85
2018-02-04T18:03:55.387Z,98503.50
2018-02-04T18:06:23.228Z,98510.89
2018-02-04T18:08:51.015Z,98518.25
2018-02-04T18:11:18.841Z,98529.53
2018-02-04T18:13:46.525Z,98536.18
2018-02-04T18:16:14.252Z,98547.91
2018-02-04T18:18:42.064Z,98553.96
2018-02-04T18:21:09.921Z,98559.73
2018-02-04T18:23:37.707Z,98562.77
2018-02-04T18:26:05.405Z,98564.66
2018-02-04T18:28:33.041Z,98566.66
2018-02-04T18:31:00.691Z,98564.33
2018-02-04T18:33:28.364Z,98568.53
2018-02-04T18:35:56.110Z,98573.17
2018-02-04T18:38:23.754Z,98574.38
2018-02-04T18:40:51.582Z,98574.02
2018-02-04T18:43:19.502Z,98576.88
2018-02-04T18:45:47.166Z,98567.06
2018-02-04T18:48:15.075Z,98572.05
2018-02-04T18:50:42.715Z,98574.52
2018-02-04T18:53:11.034Z,98577.13
2018-02-04T18:55:38.860Z,98568.81
2018-02-04T18:58:06.490Z,98575.75
2018-02-04T19:00:34.104Z,98578.69
2018-02-04T19:03:01.732Z,98582.66
2018-02-04T19:05:29.400Z,98584.05
2018-02-04T19:07:56.996Z,98605.84
2018-02-04T19:10:24.977Z,98610.84
2018-02-04T19:12:53.282Z,98606.64
2018-02-04T19:15:20.897Z,98611.02
2018-02-04T19:17:48.637Z,98613.46
2018-02-04T19:20:16.284Z,98616.56
2018-02-04T19:22:43.911Z,98613.82
2018-02-04T19:25:11.875Z,98615.64
2018-02-04T19:27:39.452Z,98616.20
2018-02-04T19:30:07.086Z,98625.30
2018-02-04T19:32:35.199Z,98628.83
2018-02-04T19:35:02.913Z,98627.20
2018-02-04T19:37:30.534Z,98623.48
2018-02-04T19:39:58.203Z,98620.87
2018-02-04T19:42:25.935Z,98599.59
2018-02-04T19:44:53.512Z,98595.39
2018-02-04T19:47:21.165Z,98599.59
2018-02-04T19:49:48.757Z,98606.16
2018-02-04T19:52:16.355Z,98600.48
2018-02-04T19:54:44.052Z,98619.05
2018-02-04T19:57:11.637Z,98620.69
2018-02-04T19:59:39.238Z,98636.80
2018-02-04T20:02:06.913Z,98640.81
2018-02-04T20:04:34.598Z,98644.73
2018-02-04T20:07:02.187Z,98656.19
2018-02-04T20:09:30.062Z,98650.11
2018-02-04T20:11:58.052Z,98666.16
2018-02-04T20:14:25.692Z,98668.13
2018-02-04T20:16:54.140Z,98676.97
2018-02-04T20:19:22.326Z,98681.37
2018-02-04T20:21:58.825Z,98685.31
2018-02-04T20:24:38.135Z,98686.70
2018-02-04T20:27:19.491Z,98690.09
2018-02-04T20:30:01.435Z,98682.06
2018-02-04T20:32:43.206Z,98692.27
2018-02-04T20:35:11.696Z,98689.64
2018-02-04T20:37:39.282Z,98690.78
2018-02-04T20:40:06.936Z,98702.12
2018-02-04T20:42:34.564Z,98704.13
2018-02-04T20:45:02.206Z,98704.56
2018-02-04T20:47:29.866Z,98705.33
2018-02-04T20:49:57.476Z,98713.22
2018-02-04T20:52:25.087Z,98715.66
2018-02-04T20:54:52.944Z,98731.52
2018-02-04T20:57:20.598Z,98726.87
2018-02-04T20:59:48.218Z,98726.14
2018-02-04T21:02:15.857Z,98725.57
2018-02-04T21:04:44.618Z,98732.61
2018-02-04T21:07:12.237Z,98739.27
2018-02-04T21:09:39.895Z,98749.05
2018-02-04T21:12:07.822Z,98756.58
2018-02-04T21:14:35.495Z,98766.63
2018-02-04T21:17:03.313Z,98761.09
2018-02-04T21:19:30.893Z,98766.20
2018-02-04T21:21:58.896Z,98773.72
2018-02-04T21:24:26.575Z,98775.23
2018-02-04T21:26:54.165Z,98779.50
2018-02-04T21:29:21.815Z,98775.87
2018-02-04T21:31:49.614Z,98775.69
2018-02-04T21:34:17.192Z,98777.39
2018-02-04T21:36:44.793Z,98776.70
2018-02-04T21:39:13.492Z,98781.59
2018-02-04T21:41:41.075Z,98783.69
2018-02-04T21:44:08.655Z,98779.25
2018-02-04T21:46:36.290Z,98791.60
2018-02-04T21:49:04.546Z,98785.60
2018-02-04T21:51:32.198Z,98797.33
2018-02-04T21:53:59.841Z,98797.98
2018-02-04T21:56:27.524Z,98803.25
2018-02-04T21:58:55.103Z,98804.11
2018-02-04T22:01:22.767Z,98799.54
2018-02-04T22:03:50.356Z,98803.69
2018-02-04T22:06:17.936Z,98808.27
2018-02-04T22:08:45.870Z,98816.79
2018-02-04T22:11:13.498Z,98822.28
2018-02-04T22:13:41.142Z,98829.17
2018-02-04T22:16:08.756Z,98831.79
2018-02-04T22:18:37.321Z,98845.94
2018-02-04T22:21:04.892Z,98849.05
2018-02-04T22:23:32.633Z,98855.81
2018-02-04T22:26:00.818Z,98855.52
2018-02-04T22:28:28.397Z,98863.13
2018-02-04T22:30:56.060Z,98868.85
2018-02-04T22:33:23.632Z,98867.52
2018-02-04T22:35:51.208Z,98875.33
2018-02-04T22:38:20.147Z,98867.16
2018-02-04T22:40:47.728Z,98873.77
2018-02-04T22:43:16.011Z,98871.58
2018-02-04T22:45:44.517Z,98879.91
2018-02-04T22:48:12.166Z,98885.82
2018-02-04T22:50:39.789Z,98887.85
2018-02-04T22:53:07.530Z,98886.09
2018-02-04T22:55:36.109Z,98883.59
2018-02-04T22:58:03.767Z,98889.67
2018-02-04T23:00:31.483Z,98884.31
2018-02-04T23:02:59.158Z,98889.51
2018-02-04T23:05:26.749Z,98888.72
2018-02-04T23:07:54.377Z,98900.16
2018-02-04T23:10:22.021Z,98902.73
2018-02-04T23:12:49.614Z,98909.08
2018-02-04T23:15:17.368Z,98920.16
2018-02-04T23:17:44.960Z,98918.46
2018-02-04T23:20:13.406Z,98920.95
2018-02-04T23:22:41.098Z,98924.55
2018-02-04T23:25:11.571Z,98920.33
2018-02-04T23:27:39.253Z,98917.84
2018-02-04T23:30:07.173Z,98921.37
2018-02-04T23:32:34.751Z,98919.37
2018-02-04T23:35:02.366Z,98926.63
2018-02-04T23:37:30.007Z,98931.37
2018-02-04T23:39:57.569Z,98935.94
2018-02-04T23:42:25.204Z,98934.80
2018-02-04T23:44:53.480Z,98933.02
2018-02-04T23:47:21.049Z,98928.20
2018-02-04T23:49:48.606Z,98933.92
2018-02-04T23:52:16.285Z,98935.55
2018-02-04T23:54:43.924Z,98940.63
2018-02-04T23:57:11.496Z,98944.78
2018-02-04T23:59:39.107Z,98940.81
